sensor_id;sensor_type;location;lat;lon;timestamp;temperature;humidity
48876;DHT22;34689;51.644;5.618;2022-09-09T00:09:36;16.70;99.90
48876;DHT22;34689;51.644;5.618;2022-09-09T00:12:17;16.60;99.90
48876;DHT22;34689;51.644;5.618;2022-09-09T00:17:14;16.60;99.90
48876;DHT22;34689;51.644;5.618;2022-09-09T00:22:19;16.60;99.90
48876;DHT22;34689;51.644;5.618;2022-09-09T00:24:55;16.50;99.90
48876;DHT22;34689;51.644;5.618;2022-09-09T00:27:47;16.50;99.90
48876;DHT22;34689;51.644;5.618;2022-09-09T00:30:33;16.50;99.90
48876;DHT22;34689;51.644;5.618;2022-09-09T00:33:03;16.50;99.90
48876;DHT22;34689;51.644;5.618;2022-09-09T00:35:38;16.50;99.90
48876;DHT22;34689;51.644;5.618;2022-09-09T00:38:36;16.40;99.90
48876;DHT22;34689;51.644;5.618;2022-09-09T00:41:07;16.40;99.90
48876;DHT22;34689;51.644;5.618;2022-09-09T00:43:39;16.40;99.90
48876;DHT22;34689;51.644;5.618;2022-09-09T00:54:48;16.30;99.90
48876;DHT22;34689;51.644;5.618;2022-09-09T01:02:29;16.30;99.90
48876;DHT22;34689;51.644;5.618;2022-09-09T01:05:07;16.30;99.90
48876;DHT22;34689;51.644;5.618;2022-09-09T01:07:38;16.30;99.90
48876;DHT22;34689;51.644;5.618;2022-09-09T01:10:14;16.30;99.90
48876;DHT22;34689;51.644;5.618;2022-09-09T01:12:43;16.20;99.90
48876;DHT22;34689;51.644;5.618;2022-09-09T01:15:18;16.20;99.90
48876;DHT22;34689;51.644;5.618;2022-09-09T01:18:00;16.20;99.90
48876;DHT22;34689;51.644;5.618;2022-09-09T01:23:47;16.10;99.90
48876;DHT22;34689;51.644;5.618;2022-09-09T01:28:48;16.10;99.90
48876;DHT22;34689;51.644;5.618;2022-09-09T01:31:20;16.10;99.90
48876;DHT22;34689;51.644;5.618;2022-09-09T01:33:47;16.10;99.90
48876;DHT22;34689;51.644;5.618;2022-09-09T01:36:28;16.10;99.90
48876;DHT22;34689;51.644;5.618;2022-09-09T01:38:55;16.10;99.90
48876;DHT22;34689;51.644;5.618;2022-09-09T01:41:21;16.10;99.90
48876;DHT22;34689;51.644;5.618;2022-09-09T01:43:47;16.10;99.90
48876;DHT22;34689;51.644;5.618;2022-09-09T01:46:13;16.10;99.90
48876;DHT22;34689;51.644;5.618;2022-09-09T01:48:40;16.10;99.90
48876;DHT22;34689;51.644;5.618;2022-09-09T01:51:08;16.10;99.90
48876;DHT22;34689;51.644;5.618;2022-09-09T01:53:36;16.10;99.90
48876;DHT22;34689;51.644;5.618;2022-09-09T01:59:31;16.10;99.90
48876;DHT22;34689;51.644;5.618;2022-09-09T02:02:18;16.00;99.90
48876;DHT22;34689;51.644;5.618;2022-09-09T02:04:49;16.00;99.90
48876;DHT22;34689;51.644;5.618;2022-09-09T02:07:42;16.00;99.90
48876;DHT22;34689;51.644;5.618;2022-09-09T02:12:33;16.00;99.90
48876;DHT22;34689;51.644;5.618;2022-09-09T02:15:05;16.00;99.90
48876;DHT22;34689;51.644;5.618;2022-09-09T02:17:36;16.00;99.90
48876;DHT22;34689;51.644;5.618;2022-09-09T02:20:10;16.00;99.90
48876;DHT22;34689;51.644;5.618;2022-09-09T02:22:39;16.00;99.90
48876;DHT22;34689;51.644;5.618;2022-09-09T02:25:08;16.00;99.90
48876;DHT22;34689;51.644;5.618;2022-09-09T02:27:35;16.10;99.90
48876;DHT22;34689;51.644;5.618;2022-09-09T02:30:02;16.10;99.90
48876;DHT22;34689;51.644;5.618;2022-09-09T02:32:29;16.10;99.90
48876;DHT22;34689;51.644;5.618;2022-09-09T02:35:02;16.10;99.90
48876;DHT22;34689;51.644;5.618;2022-09-09T02:37:35;16.10;99.90
48876;DHT22;34689;51.644;5.618;2022-09-09T02:40:06;16.00;99.90
48876;DHT22;34689;51.644;5.618;2022-09-09T02:42:48;16.10;99.90
48876;DHT22;34689;51.644;5.618;2022-09-09T02:45:19;16.10;99.90
48876;DHT22;34689;51.644;5.618;2022-09-09T02:47:48;16.00;99.90
48876;DHT22;34689;51.644;5.618;2022-09-09T02:50:25;16.00;99.90
48876;DHT22;34689;51.644;5.618;2022-09-09T02:53:20;16.00;99.90
48876;DHT22;34689;51.644;5.618;2022-09-09T02:55:58;16.00;99.90
48876;DHT22;34689;51.644;5.618;2022-09-09T02:58:25;16.00;99.90
48876;DHT22;34689;51.644;5.618;2022-09-09T03:00:51;16.00;99.90
48876;DHT22;34689;51.644;5.618;2022-09-09T03:03:19;16.00;99.90
48876;DHT22;34689;51.644;5.618;2022-09-09T03:05:46;16.00;99.90
48876;DHT22;34689;51.644;5.618;2022-09-09T03:08:12;15.90;99.90
48876;DHT22;34689;51.644;5.618;2022-09-09T03:10:38;16.00;99.90
48876;DHT22;34689;51.644;5.618;2022-09-09T03:13:05;16.00;99.90
48876;DHT22;34689;51.644;5.618;2022-09-09T03:15:32;16.00;99.90
48876;DHT22;34689;51.644;5.618;2022-09-09T03:17:58;16.00;99.90
48876;DHT22;34689;51.644;5.618;2022-09-09T03:20:26;16.00;99.90
48876;DHT22;34689;51.644;5.618;2022-09-09T03:22:52;16.00;99.90
48876;DHT22;34689;51.644;5.618;2022-09-09T03:25:21;16.00;99.90
48876;DHT22;34689;51.644;5.618;2022-09-09T03:27:52;16.00;99.90
48876;DHT22;34689;51.644;5.618;2022-09-09T03:30:26;16.00;99.90
48876;DHT22;34689;51.644;5.618;2022-09-09T03:32:52;16.00;99.90
48876;DHT22;34689;51.644;5.618;2022-09-09T03:35:17;16.00;99.90
48876;DHT22;34689;51.644;5.618;2022-09-09T03:37:44;16.00;99.90
48876;DHT22;34689;51.644;5.618;2022-09-09T03:40:10;16.00;99.90
48876;DHT22;34689;51.644;5.618;2022-09-09T03:42:36;16.00;99.90
48876;DHT22;34689;51.644;5.618;2022-09-09T03:45:04;15.90;99.90
48876;DHT22;34689;51.644;5.618;2022-09-09T03:47:30;16.00;99.90
48876;DHT22;34689;51.644;5.618;2022-09-09T03:49:56;16.00;99.90
48876;DHT22;34689;51.644;5.618;2022-09-09T03:52:21;16.00;99.90
48876;DHT22;34689;51.644;5.618;2022-09-09T03:54:50;16.00;99.90
48876;DHT22;34689;51.644;5.618;2022-09-09T03:57:16;16.00;99.90
48876;DHT22;34689;51.644;5.618;2022-09-09T03:59:43;16.00;99.90
48876;DHT22;34689;51.644;5.618;2022-09-09T04:02:09;16.00;99.90
48876;DHT22;34689;51.644;5.618;2022-09-09T04:04:34;16.00;99.90
48876;DHT22;34689;51.644;5.618;2022-09-09T04:07:00;16.10;99.90
48876;DHT22;34689;51.644;5.618;2022-09-09T04:09:26;16.10;99.90
48876;DHT22;34689;51.644;5.618;2022-09-09T04:11:52;16.10;99.90
48876;DHT22;34689;51.644;5.618;2022-09-09T04:14:19;16.10;99.90
48876;DHT22;34689;51.644;5.618;2022-09-09T04:16:44;16.10;99.90
48876;DHT22;34689;51.644;5.618;2022-09-09T04:19:13;16.10;99.90
48876;DHT22;34689;51.644;5.618;2022-09-09T04:21:40;16.10;99.90
48876;DHT22;34689;51.644;5.618;2022-09-09T04:24:07;16.20;99.90
48876;DHT22;34689;51.644;5.618;2022-09-09T04:26:34;16.20;99.90
48876;DHT22;34689;51.644;5.618;2022-09-09T04:29:02;16.20;99.90
48876;DHT22;34689;51.644;5.618;2022-09-09T04:31:27;16.20;99.90
48876;DHT22;34689;51.644;5.618;2022-09-09T04:33:53;16.20;99.90
48876;DHT22;34689;51.644;5.618;2022-09-09T04:36:19;16.20;99.90
48876;DHT22;34689;51.644;5.618;2022-09-09T04:38:45;16.20;99.90
48876;DHT22;34689;51.644;5.618;2022-09-09T04:41:12;16.20;99.90
48876;DHT22;34689;51.644;5.618;2022-09-09T04:43:38;16.20;99.90
48876;DHT22;34689;51.644;5.618;2022-09-09T04:46:05;16.20;99.90
48876;DHT22;34689;51.644;5.618;2022-09-09T04:48:31;16.20;99.90
48876;DHT22;34689;51.644;5.618;2022-09-09T04:51:04;16.20;99.90
48876;DHT22;34689;51.644;5.618;2022-09-09T04:53:31;16.20;99.90
48876;DHT22;34689;51.644;5.618;2022-09-09T04:56:11;16.20;99.90
48876;DHT22;34689;51.644;5.618;2022-09-09T04:58:38;16.20;99.90
48876;DHT22;34689;51.644;5.618;2022-09-09T05:01:15;16.10;99.90
48876;DHT22;34689;51.644;5.618;2022-09-09T05:03:42;16.10;99.90
48876;DHT22;34689;51.644;5.618;2022-09-09T05:06:18;16.20;99.90
48876;DHT22;34689;51.644;5.618;2022-09-09T05:08:47;16.20;99.90
48876;DHT22;34689;51.644;5.618;2022-09-09T05:11:24;16.20;99.90
48876;DHT22;34689;51.644;5.618;2022-09-09T05:13:51;16.20;99.90
48876;DHT22;34689;51.644;5.618;2022-09-09T05:16:18;16.20;99.90
48876;DHT22;34689;51.644;5.618;2022-09-09T05:18:44;16.10;99.90
48876;DHT22;34689;51.644;5.618;2022-09-09T05:21:12;16.20;99.90
48876;DHT22;34689;51.644;5.618;2022-09-09T05:23:38;16.20;99.90
48876;DHT22;34689;51.644;5.618;2022-09-09T05:26:05;16.10;99.90
48876;DHT22;34689;51.644;5.618;2022-09-09T05:28:33;16.20;99.90
48876;DHT22;34689;51.644;5.618;2022-09-09T05:31:01;16.10;99.90
48876;DHT22;34689;51.644;5.618;2022-09-09T05:33:30;16.20;99.90
48876;DHT22;34689;51.644;5.618;2022-09-09T05:36:00;16.20;99.90
48876;DHT22;34689;51.644;5.618;2022-09-09T05:38:27;16.30;99.90
48876;DHT22;34689;51.644;5.618;2022-09-09T05:40:53;16.20;99.90
48876;DHT22;34689;51.644;5.618;2022-09-09T05:43:25;16.20;99.90
48876;DHT22;34689;51.644;5.618;2022-09-09T05:46:05;16.20;99.90
48876;DHT22;34689;51.644;5.618;2022-09-09T05:48:33;16.20;99.90
48876;DHT22;34689;51.644;5.618;2022-09-09T05:51:00;16.20;99.90
48876;DHT22;34689;51.644;5.618;2022-09-09T05:53:27;16.20;99.90
48876;DHT22;34689;51.644;5.618;2022-09-09T05:56:11;16.20;99.90
48876;DHT22;34689;51.644;5.618;2022-09-09T05:58:38;16.20;99.90
48876;DHT22;34689;51.644;5.618;2022-09-09T06:01:12;16.20;99.90
48876;DHT22;34689;51.644;5.618;2022-09-09T06:03:42;16.20;99.90
48876;DHT22;34689;51.644;5.618;2022-09-09T06:06:14;16.20;99.90
48876;DHT22;34689;51.644;5.618;2022-09-09T06:08:44;16.20;99.90
48876;DHT22;34689;51.644;5.618;2022-09-09T06:11:15;16.20;99.90
48876;DHT22;34689;51.644;5.618;2022-09-09T06:13:42;16.20;99.90
48876;DHT22;34689;51.644;5.618;2022-09-09T06:16:13;16.20;99.90
48876;DHT22;34689;51.644;5.618;2022-09-09T06:18:40;16.30;99.90
48876;DHT22;34689;51.644;5.618;2022-09-09T06:21:11;16.30;99.90
48876;DHT22;34689;51.644;5.618;2022-09-09T06:23:40;16.20;99.90
48876;DHT22;34689;51.644;5.618;2022-09-09T06:26:10;16.20;99.90
48876;DHT22;34689;51.644;5.618;2022-09-09T06:28:37;16.20;99.90
48876;DHT22;34689;51.644;5.618;2022-09-09T06:31:05;16.20;99.90
48876;DHT22;34689;51.644;5.618;2022-09-09T06:33:32;16.20;99.90
48876;DHT22;34689;51.644;5.618;2022-09-09T06:36:00;16.20;99.90
48876;DHT22;34689;51.644;5.618;2022-09-09T06:38:27;16.30;99.90
48876;DHT22;34689;51.644;5.618;2022-09-09T06:40:58;16.30;99.90
48876;DHT22;34689;51.644;5.618;2022-09-09T06:43:25;16.20;99.90
48876;DHT22;34689;51.644;5.618;2022-09-09T06:45:55;16.30;99.90
48876;DHT22;34689;51.644;5.618;2022-09-09T06:48:21;16.30;99.90
48876;DHT22;34689;51.644;5.618;2022-09-09T06:50:46;16.30;99.90
48876;DHT22;34689;51.644;5.618;2022-09-09T06:53:15;16.40;99.90
48876;DHT22;34689;51.644;5.618;2022-09-09T06:55:41;16.40;99.90
48876;DHT22;34689;51.644;5.618;2022-09-09T06:58:09;16.30;99.90
48876;DHT22;34689;51.644;5.618;2022-09-09T07:00:37;16.40;99.90
48876;DHT22;34689;51.644;5.618;2022-09-09T07:03:04;16.40;99.90
48876;DHT22;34689;51.644;5.618;2022-09-09T07:05:33;16.40;99.90
48876;DHT22;34689;51.644;5.618;2022-09-09T07:07:59;16.50;99.90
48876;DHT22;34689;51.644;5.618;2022-09-09T07:10:25;16.50;99.90
48876;DHT22;34689;51.644;5.618;2022-09-09T07:12:54;16.50;99.90
48876;DHT22;34689;51.644;5.618;2022-09-09T07:15:20;16.50;99.90
48876;DHT22;34689;51.644;5.618;2022-09-09T07:17:47;16.60;99.90
48876;DHT22;34689;51.644;5.618;2022-09-09T07:20:16;16.60;99.90
48876;DHT22;34689;51.644;5.618;2022-09-09T07:22:41;16.60;99.90
48876;DHT22;34689;51.644;5.618;2022-09-09T07:25:07;16.70;99.90
48876;DHT22;34689;51.644;5.618;2022-09-09T07:27:33;16.70;99.90
48876;DHT22;34689;51.644;5.618;2022-09-09T07:29:59;16.70;99.90
48876;DHT22;34689;51.644;5.618;2022-09-09T07:32:25;16.70;99.90
48876;DHT22;34689;51.644;5.618;2022-09-09T07:34:55;16.70;99.90
48876;DHT22;34689;51.644;5.618;2022-09-09T07:37:23;16.90;99.90
48876;DHT22;34689;51.644;5.618;2022-09-09T07:39:49;16.90;99.90
48876;DHT22;34689;51.644;5.618;2022-09-09T07:42:16;17.00;99.90
48876;DHT22;34689;51.644;5.618;2022-09-09T07:44:42;17.00;99.90
48876;DHT22;34689;51.644;5.618;2022-09-09T07:47:08;17.00;99.90
48876;DHT22;34689;51.644;5.618;2022-09-09T07:49:34;17.00;99.90
48876;DHT22;34689;51.644;5.618;2022-09-09T07:52:00;17.10;99.90
48876;DHT22;34689;51.644;5.618;2022-09-09T07:54:26;17.10;99.90
48876;DHT22;34689;51.644;5.618;2022-09-09T07:56:52;17.20;99.90
48876;DHT22;34689;51.644;5.618;2022-09-09T07:59:18;17.20;99.90
48876;DHT22;34689;51.644;5.618;2022-09-09T08:01:47;17.20;99.90
48876;DHT22;34689;51.644;5.618;2022-09-09T08:04:16;17.20;99.90
48876;DHT22;34689;51.644;5.618;2022-09-09T08:06:45;17.30;99.90
48876;DHT22;34689;51.644;5.618;2022-09-09T08:09:13;17.20;99.90
48876;DHT22;34689;51.644;5.618;2022-09-09T08:11:40;17.20;99.90
48876;DHT22;34689;51.644;5.618;2022-09-09T08:14:07;17.20;99.90
48876;DHT22;34689;51.644;5.618;2022-09-09T08:16:37;17.20;99.90
48876;DHT22;34689;51.644;5.618;2022-09-09T08:19:03;17.30;99.90
48876;DHT22;34689;51.644;5.618;2022-09-09T08:21:30;17.30;99.90
48876;DHT22;34689;51.644;5.618;2022-09-09T08:23:59;17.30;99.90
48876;DHT22;34689;51.644;5.618;2022-09-09T08:26:25;17.30;99.90
48876;DHT22;34689;51.644;5.618;2022-09-09T08:28:53;17.40;99.90
48876;DHT22;34689;51.644;5.618;2022-09-09T08:31:22;17.40;99.90
48876;DHT22;34689;51.644;5.618;2022-09-09T08:33:50;17.50;99.90
48876;DHT22;34689;51.644;5.618;2022-09-09T08:36:21;17.50;99.90
48876;DHT22;34689;51.644;5.618;2022-09-09T08:38:48;17.50;99.90
48876;DHT22;34689;51.644;5.618;2022-09-09T08:41:44;17.50;99.90
48876;DHT22;34689;51.644;5.618;2022-09-09T08:50:22;17.50;99.90
48876;DHT22;34689;51.644;5.618;2022-09-09T08:58:15;17.50;99.90
48876;DHT22;34689;51.644;5.618;2022-09-09T09:08:56;17.60;99.90
48876;DHT22;34689;51.644;5.618;2022-09-09T09:11:27;17.60;99.90
48876;DHT22;34689;51.644;5.618;2022-09-09T09:14:26;17.60;99.90
48876;DHT22;34689;51.644;5.618;2022-09-09T09:19:27;17.60;99.90
48876;DHT22;34689;51.644;5.618;2022-09-09T09:24:45;17.60;99.90
48876;DHT22;34689;51.644;5.618;2022-09-09T09:27:35;17.60;99.90
48876;DHT22;34689;51.644;5.618;2022-09-09T09:32:39;17.60;99.90
48876;DHT22;34689;51.644;5.618;2022-09-09T09:35:11;17.60;99.90
48876;DHT22;34689;51.644;5.618;2022-09-09T09:37:40;17.60;99.90
48876;DHT22;34689;51.644;5.618;2022-09-09T09:40:14;17.60;99.90
48876;DHT22;34689;51.644;5.618;2022-09-09T09:42:55;17.60;99.90
48876;DHT22;34689;51.644;5.618;2022-09-09T09:45:33;17.60;99.90
48876;DHT22;34689;51.644;5.618;2022-09-09T09:48:05;17.60;99.90
48876;DHT22;34689;51.644;5.618;2022-09-09T09:50:32;17.70;99.90
48876;DHT22;34689;51.644;5.618;2022-09-09T09:53:02;17.70;99.90
48876;DHT22;34689;51.644;5.618;2022-09-09T09:55:30;17.70;99.90
48876;DHT22;34689;51.644;5.618;2022-09-09T09:58:14;17.70;99.90
48876;DHT22;34689;51.644;5.618;2022-09-09T10:00:48;17.80;99.90
48876;DHT22;34689;51.644;5.618;2022-09-09T10:05:52;18.50;99.90
48876;DHT22;34689;51.644;5.618;2022-09-09T10:08:18;18.60;99.80
48876;DHT22;34689;51.644;5.618;2022-09-09T10:13:38;18.60;99.80
48876;DHT22;34689;51.644;5.618;2022-09-09T10:19:13;18.60;99.70
48876;DHT22;34689;51.644;5.618;2022-09-09T10:21:51;18.50;99.70
48876;DHT22;34689;51.644;5.618;2022-09-09T10:27:48;18.40;99.90
48876;DHT22;34689;51.644;5.618;2022-09-09T10:30:21;18.30;99.90
48876;DHT22;34689;51.644;5.618;2022-09-09T10:38:48;18.20;99.90
48876;DHT22;34689;51.644;5.618;2022-09-09T10:57:17;17.90;99.90
48876;DHT22;34689;51.644;5.618;2022-09-09T10:59:50;17.90;99.90
48876;DHT22;34689;51.644;5.618;2022-09-09T11:02:28;17.80;99.90
48876;DHT22;34689;51.644;5.618;2022-09-09T11:07:55;17.70;99.90
48876;DHT22;34689;51.644;5.618;2022-09-09T11:10:40;17.70;99.90
48876;DHT22;34689;51.644;5.618;2022-09-09T11:13:15;17.70;99.90
48876;DHT22;34689;51.644;5.618;2022-09-09T11:15:49;17.70;99.90
48876;DHT22;34689;51.644;5.618;2022-09-09T11:18:22;17.70;99.90
48876;DHT22;34689;51.644;5.618;2022-09-09T11:21:00;17.80;99.90
48876;DHT22;34689;51.644;5.618;2022-09-09T11:23:43;17.80;99.90
48876;DHT22;34689;51.644;5.618;2022-09-09T11:26:17;17.90;99.90
48876;DHT22;34689;51.644;5.618;2022-09-09T11:29:07;17.90;99.90
48876;DHT22;34689;51.644;5.618;2022-09-09T11:31:44;17.90;99.90
48876;DHT22;34689;51.644;5.618;2022-09-09T11:42:24;17.80;99.90
48876;DHT22;34689;51.644;5.618;2022-09-09T11:44:50;17.90;99.90
48876;DHT22;34689;51.644;5.618;2022-09-09T11:47:50;17.90;99.90
48876;DHT22;34689;51.644;5.618;2022-09-09T11:52:45;17.90;99.90
48876;DHT22;34689;51.644;5.618;2022-09-09T11:55:28;17.90;99.90
48876;DHT22;34689;51.644;5.618;2022-09-09T12:00:38;17.90;99.90
48876;DHT22;34689;51.644;5.618;2022-09-09T12:03:06;17.90;99.90
48876;DHT22;34689;51.644;5.618;2022-09-09T12:05:42;17.90;99.90
48876;DHT22;34689;51.644;5.618;2022-09-09T12:08:11;18.00;99.90
48876;DHT22;34689;51.644;5.618;2022-09-09T12:10:39;17.90;99.90
48876;DHT22;34689;51.644;5.618;2022-09-09T12:15:35;17.90;99.90
48876;DHT22;34689;51.644;5.618;2022-09-09T12:18:21;17.90;99.90
48876;DHT22;34689;51.644;5.618;2022-09-09T12:21:03;17.90;99.90
48876;DHT22;34689;51.644;5.618;2022-09-09T12:23:43;17.90;99.90
48876;DHT22;34689;51.644;5.618;2022-09-09T12:26:22;17.90;99.90
48876;DHT22;34689;51.644;5.618;2022-09-09T12:37:02;18.20;99.90
48876;DHT22;34689;51.644;5.618;2022-09-09T12:42:00;18.40;99.90
48876;DHT22;34689;51.644;5.618;2022-09-09T12:44:26;18.50;99.90
48876;DHT22;34689;51.644;5.618;2022-09-09T12:46:56;18.50;99.90
48876;DHT22;34689;51.644;5.618;2022-09-09T12:51:53;18.50;99.90
48876;DHT22;34689;51.644;5.618;2022-09-09T12:54:19;18.50;99.90
48876;DHT22;34689;51.644;5.618;2022-09-09T12:56:46;18.50;99.90
48876;DHT22;34689;51.644;5.618;2022-09-09T12:59:25;18.60;99.90
48876;DHT22;34689;51.644;5.618;2022-09-09T13:01:58;18.70;99.90
48876;DHT22;34689;51.644;5.618;2022-09-09T13:04:24;18.70;99.90
48876;DHT22;34689;51.644;5.618;2022-09-09T13:06:50;18.60;99.90
48876;DHT22;34689;51.644;5.618;2022-09-09T13:09:18;18.60;99.90
48876;DHT22;34689;51.644;5.618;2022-09-09T13:11:49;18.70;99.90
48876;DHT22;34689;51.644;5.618;2022-09-09T13:14:26;18.60;99.90
48876;DHT22;34689;51.644;5.618;2022-09-09T13:16:58;18.50;99.90
48876;DHT22;34689;51.644;5.618;2022-09-09T13:19:25;18.50;99.90
48876;DHT22;34689;51.644;5.618;2022-09-09T13:21:54;18.40;99.90
48876;DHT22;34689;51.644;5.618;2022-09-09T13:24:31;18.30;99.90
48876;DHT22;34689;51.644;5.618;2022-09-09T13:26:59;18.20;99.90
48876;DHT22;34689;51.644;5.618;2022-09-09T13:29:28;18.20;99.90
48876;DHT22;34689;51.644;5.618;2022-09-09T13:31:54;18.10;99.90
48876;DHT22;34689;51.644;5.618;2022-09-09T13:34:29;18.00;99.90
48876;DHT22;34689;51.644;5.618;2022-09-09T13:37:01;17.90;99.90
48876;DHT22;34689;51.644;5.618;2022-09-09T13:39:28;17.90;99.90
48876;DHT22;34689;51.644;5.618;2022-09-09T13:41:54;17.80;99.90
48876;DHT22;34689;51.644;5.618;2022-09-09T13:44:26;17.90;99.90
48876;DHT22;34689;51.644;5.618;2022-09-09T13:47:04;18.00;99.90
48876;DHT22;34689;51.644;5.618;2022-09-09T13:49:31;18.20;99.90
48876;DHT22;34689;51.644;5.618;2022-09-09T13:54:40;18.70;99.90
48876;DHT22;34689;51.644;5.618;2022-09-09T13:57:17;18.90;99.90
48876;DHT22;34689;51.644;5.618;2022-09-09T13:59:44;19.00;99.90
48876;DHT22;34689;51.644;5.618;2022-09-09T14:02:10;19.10;99.90
48876;DHT22;34689;51.644;5.618;2022-09-09T14:04:36;19.20;99.90
48876;DHT22;34689;51.644;5.618;2022-09-09T14:07:02;19.20;99.90
48876;DHT22;34689;51.644;5.618;2022-09-09T14:09:28;19.20;99.90
48876;DHT22;34689;51.644;5.618;2022-09-09T14:11:54;19.10;99.90
48876;DHT22;34689;51.644;5.618;2022-09-09T14:14:22;19.10;99.90
48876;DHT22;34689;51.644;5.618;2022-09-09T14:16:48;19.10;99.90
48876;DHT22;34689;51.644;5.618;2022-09-09T14:19:14;19.10;99.90
48876;DHT22;34689;51.644;5.618;2022-09-09T14:21:40;19.10;99.90
48876;DHT22;34689;51.644;5.618;2022-09-09T14:24:05;19.10;99.90
48876;DHT22;34689;51.644;5.618;2022-09-09T14:26:34;19.10;99.90
48876;DHT22;34689;51.644;5.618;2022-09-09T14:29:00;19.10;99.90
48876;DHT22;34689;51.644;5.618;2022-09-09T14:31:26;19.10;99.90
48876;DHT22;34689;51.644;5.618;2022-09-09T14:33:52;19.10;99.90
48876;DHT22;34689;51.644;5.618;2022-09-09T14:36:18;19.10;99.90
48876;DHT22;34689;51.644;5.618;2022-09-09T14:38:44;19.10;99.90
48876;DHT22;34689;51.644;5.618;2022-09-09T14:41:11;19.10;99.90
48876;DHT22;34689;51.644;5.618;2022-09-09T14:43:38;19.20;99.90
48876;DHT22;34689;51.644;5.618;2022-09-09T14:46:11;19.20;99.90
48876;DHT22;34689;51.644;5.618;2022-09-09T14:48:37;19.20;99.90
48876;DHT22;34689;51.644;5.618;2022-09-09T14:51:09;19.10;99.90
48876;DHT22;34689;51.644;5.618;2022-09-09T14:53:35;19.20;99.90
48876;DHT22;34689;51.644;5.618;2022-09-09T14:56:10;19.20;99.90
48876;DHT22;34689;51.644;5.618;2022-09-09T14:58:36;19.20;99.90
48876;DHT22;34689;51.644;5.618;2022-09-09T15:01:12;19.30;99.90
48876;DHT22;34689;51.644;5.618;2022-09-09T15:03:42;19.30;99.90
48876;DHT22;34689;51.644;5.618;2022-09-09T15:06:11;19.20;99.90
48876;DHT22;34689;51.644;5.618;2022-09-09T15:08:38;19.20;99.90
48876;DHT22;34689;51.644;5.618;2022-09-09T15:11:05;19.20;99.90
48876;DHT22;34689;51.644;5.618;2022-09-09T15:13:33;19.10;99.90
48876;DHT22;34689;51.644;5.618;2022-09-09T15:16:11;19.10;99.90
48876;DHT22;34689;51.644;5.618;2022-09-09T15:18:38;19.00;99.90
48876;DHT22;34689;51.644;5.618;2022-09-09T15:21:09;19.00;99.90
48876;DHT22;34689;51.644;5.618;2022-09-09T15:23:38;18.90;99.90
48876;DHT22;34689;51.644;5.618;2022-09-09T15:26:04;18.90;99.90
48876;DHT22;34689;51.644;5.618;2022-09-09T15:28:32;18.90;99.90
48876;DHT22;34689;51.644;5.618;2022-09-09T15:31:06;18.90;99.90
48876;DHT22;34689;51.644;5.618;2022-09-09T15:33:35;18.80;99.90
48876;DHT22;34689;51.644;5.618;2022-09-09T15:36:18;18.80;99.90
48876;DHT22;34689;51.644;5.618;2022-09-09T15:38:44;18.80;99.90
48876;DHT22;34689;51.644;5.618;2022-09-09T15:41:13;18.70;99.90
48876;DHT22;34689;51.644;5.618;2022-09-09T15:43:46;18.60;99.90
48876;DHT22;34689;51.644;5.618;2022-09-09T15:46:33;18.30;99.90
48876;DHT22;34689;51.644;5.618;2022-09-09T15:49:13;17.90;99.90
48876;DHT22;34689;51.644;5.618;2022-09-09T15:51:45;17.60;99.90
48876;DHT22;34689;51.644;5.618;2022-09-09T15:54:13;17.30;99.90
48876;DHT22;34689;51.644;5.618;2022-09-09T15:56:39;17.10;99.90
48876;DHT22;34689;51.644;5.618;2022-09-09T15:59:05;17.00;99.90
48876;DHT22;34689;51.644;5.618;2022-09-09T16:01:31;16.90;99.90
48876;DHT22;34689;51.644;5.618;2022-09-09T16:03:58;16.80;99.90
48876;DHT22;34689;51.644;5.618;2022-09-09T16:06:26;16.70;99.90
48876;DHT22;34689;51.644;5.618;2022-09-09T16:08:56;16.70;99.90
48876;DHT22;34689;51.644;5.618;2022-09-09T16:11:31;16.70;99.90
48876;DHT22;34689;51.644;5.618;2022-09-09T16:13:58;16.80;99.90
48876;DHT22;34689;51.644;5.618;2022-09-09T16:16:26;16.80;99.90
48876;DHT22;34689;51.644;5.618;2022-09-09T16:18:56;16.80;99.90
48876;DHT22;34689;51.644;5.618;2022-09-09T16:21:25;16.80;99.90
48876;DHT22;34689;51.644;5.618;2022-09-09T16:23:55;16.70;99.90
48876;DHT22;34689;51.644;5.618;2022-09-09T16:26:21;16.70;99.90
48876;DHT22;34689;51.644;5.618;2022-09-09T16:28:48;16.80;99.90
48876;DHT22;34689;51.644;5.618;2022-09-09T16:31:19;16.70;99.90
48876;DHT22;34689;51.644;5.618;2022-09-09T16:33:45;16.70;99.90
48876;DHT22;34689;51.644;5.618;2022-09-09T16:36:14;16.70;99.90
48876;DHT22;34689;51.644;5.618;2022-09-09T16:38:40;16.70;99.90
48876;DHT22;34689;51.644;5.618;2022-09-09T16:41:07;16.70;99.90
48876;DHT22;34689;51.644;5.618;2022-09-09T16:43:35;16.70;99.90
48876;DHT22;34689;51.644;5.618;2022-09-09T16:46:02;16.70;99.90
48876;DHT22;34689;51.644;5.618;2022-09-09T16:48:32;16.70;99.90
48876;DHT22;34689;51.644;5.618;2022-09-09T16:51:04;16.70;99.90
48876;DHT22;34689;51.644;5.618;2022-09-09T16:53:31;16.70;99.90
48876;DHT22;34689;51.644;5.618;2022-09-09T16:55:57;16.70;99.90
48876;DHT22;34689;51.644;5.618;2022-09-09T16:58:23;16.70;99.90
48876;DHT22;34689;51.644;5.618;2022-09-09T17:00:49;16.70;99.90
48876;DHT22;34689;51.644;5.618;2022-09-09T17:03:16;16.70;99.90
48876;DHT22;34689;51.644;5.618;2022-09-09T17:05:42;16.70;99.90
48876;DHT22;34689;51.644;5.618;2022-09-09T17:08:12;16.70;99.90
48876;DHT22;34689;51.644;5.618;2022-09-09T17:10:41;16.70;99.90
48876;DHT22;34689;51.644;5.618;2022-09-09T17:13:07;16.70;99.90
48876;DHT22;34689;51.644;5.618;2022-09-09T17:15:33;16.70;99.90
48876;DHT22;34689;51.644;5.618;2022-09-09T17:17:59;16.70;99.90
48876;DHT22;34689;51.644;5.618;2022-09-09T17:20:25;16.70;99.90
48876;DHT22;34689;51.644;5.618;2022-09-09T17:22:51;16.70;99.90
48876;DHT22;34689;51.644;5.618;2022-09-09T17:25:17;16.70;99.90
48876;DHT22;34689;51.644;5.618;2022-09-09T17:27:42;16.70;99.90
48876;DHT22;34689;51.644;5.618;2022-09-09T17:30:09;16.70;99.90
48876;DHT22;34689;51.644;5.618;2022-09-09T17:32:35;16.80;99.90
48876;DHT22;34689;51.644;5.618;2022-09-09T17:35:02;16.80;99.90
48876;DHT22;34689;51.644;5.618;2022-09-09T17:37:28;16.80;99.90
48876;DHT22;34689;51.644;5.618;2022-09-09T17:39:53;16.80;99.90
48876;DHT22;34689;51.644;5.618;2022-09-09T17:42:19;16.80;99.90
48876;DHT22;34689;51.644;5.618;2022-09-09T17:44:45;16.80;99.90
48876;DHT22;34689;51.644;5.618;2022-09-09T17:47:13;16.80;99.90
48876;DHT22;34689;51.644;5.618;2022-09-09T17:49:38;16.80;99.90
48876;DHT22;34689;51.644;5.618;2022-09-09T17:52:04;16.80;99.90
48876;DHT22;34689;51.644;5.618;2022-09-09T17:54:30;16.80;99.90
48876;DHT22;34689;51.644;5.618;2022-09-09T17:56:58;16.80;99.90
48876;DHT22;34689;51.644;5.618;2022-09-09T17:59:24;16.70;99.90
48876;DHT22;34689;51.644;5.618;2022-09-09T18:01:51;16.70;99.90